sensor_id;sensor_type;location;lat;lon;timestamp;pressure;altitude;pressure_sealevel;temperature;humidity
57668;BME280;43499;52.366;12.912;2023-05-07T00:00:46;101855.66;;;7.97;100.00
57668;BME280;43499;52.366;12.912;2023-05-07T00:01:47;101876.22;;;8.10;100.00
57668;BME280;43499;52.366;12.912;2023-05-07T00:02:48;101861.19;;;8.00;100.00
57668;BME280;43499;52.366;12.912;2023-05-07T00:03:49;101855.47;;;7.96;100.00
57668;BME280;43499;52.366;12.912;2023-05-07T00:04:50;101879.25;;;8.06;100.00
57668;BME280;43499;52.366;12.912;2023-05-07T00:05:53;101875.31;;;8.10;100.00
57668;BME280;43499;52.366;12.912;2023-05-07T00:06:53;101875.47;;;8.11;100.00
57668;BME280;43499;52.366;12.912;2023-05-07T00:07:56;101871.94;;;8.11;100.00
57668;BME280;43499;52.366;12.912;2023-05-07T00:08:57;101871.75;;;8.09;100.00
57668;BME280;43499;52.366;12.912;2023-05-07T00:09:58;101870.16;;;8.02;100.00
57668;BME280;43499;52.366;12.912;2023-05-07T00:10:59;101862.75;;;7.98;100.00
57668;BME280;43499;52.366;12.912;2023-05-07T00:12:00;101878.19;;;8.04;100.00
57668;BME280;43499;52.366;12.912;2023-05-07T00:13:01;101870.91;;;8.01;100.00
57668;BME280;43499;52.366;12.912;2023-05-07T00:14:02;101862.91;;;8.00;100.00
57668;BME280;43499;52.366;12.912;2023-05-07T00:15:04;101862.13;;;8.01;100.00
57668;BME280;43499;52.366;12.912;2023-05-07T00:16:07;101877.44;;;8.05;100.00
57668;BME280;43499;52.366;12.912;2023-05-07T00:17:08;101883.44;;;8.04;100.00
57668;BME280;43499;52.366;12.912;2023-05-07T00:18:09;101859.28;;;7.91;100.00
57668;BME280;43499;52.366;12.912;2023-05-07T00:19:10;101880.06;;;8.05;100.00
57668;BME280;43499;52.366;12.912;2023-05-07T00:20:11;101866.44;;;8.00;100.00
57668;BME280;43499;52.366;12.912;2023-05-07T00:21:12;101871.09;;;8.03;100.00
57668;BME280;43499;52.366;12.912;2023-05-07T00:22:13;101869.06;;;8.00;100.00
57668;BME280;43499;52.366;12.912;2023-05-07T00:23:14;101873.88;;;8.05;100.00
57668;BME280;43499;52.366;12.912;2023-05-07T00:24:15;101867.72;;;8.04;100.00
57668;BME280;43499;52.366;12.912;2023-05-07T00:25:16;101870.84;;;8.09;100.00
57668;BME280;43499;52.366;12.912;2023-05-07T00:26:20;101872.69;;;8.10;100.00
57668;BME280;43499;52.366;12.912;2023-05-07T00:27:24;101877.94;;;8.10;100.00
57668;BME280;43499;52.366;12.912;2023-05-07T00:28:25;101861.19;;;8.00;100.00
57668;BME280;43499;52.366;12.912;2023-05-07T00:29:26;101871.25;;;8.05;100.00
57668;BME280;43499;52.366;12.912;2023-05-07T00:30:27;101871.75;;;8.09;100.00
57668;BME280;43499;52.366;12.912;2023-05-07T00:31:28;101855.03;;;8.00;100.00
57668;BME280;43499;52.366;12.912;2023-05-07T00:32:29;101869.31;;;8.11;100.00
57668;BME280;43499;52.366;12.912;2023-05-07T00:33:30;101867.28;;;8.08;100.00
57668;BME280;43499;52.366;12.912;2023-05-07T00:34:31;101879.47;;;8.08;100.00
57668;BME280;43499;52.366;12.912;2023-05-07T00:35:32;101876.38;;;8.12;100.00
57668;BME280;43499;52.366;12.912;2023-05-07T00:36:33;101866.09;;;8.13;100.00
57668;BME280;43499;52.366;12.912;2023-05-07T00:37:34;101858.84;;;8.11;100.00
57668;BME280;43499;52.366;12.912;2023-05-07T00:38:36;101868.72;;;8.13;100.00
57668;BME280;43499;52.366;12.912;2023-05-07T00:39:37;101865.75;;;8.10;100.00
57668;BME280;43499;52.366;12.912;2023-05-07T00:40:38;101850.72;;;8.00;100.00
57668;BME280;43499;52.366;12.912;2023-05-07T00:41:39;101873.63;;;8.10;100.00
57668;BME280;43499;52.366;12.912;2023-05-07T00:42:40;101865.75;;;8.10;100.00
57668;BME280;43499;52.366;12.912;2023-05-07T00:43:41;101864.66;;;8.08;100.00
57668;BME280;43499;52.366;12.912;2023-05-07T00:44:42;101861.47;;;8.11;100.00
57668;BME280;43499;52.366;12.912;2023-05-07T00:45:43;101869.81;;;8.15;100.00
57668;BME280;43499;52.366;12.912;2023-05-07T00:46:44;101873.50;;;8.17;100.00
57668;BME280;43499;52.366;12.912;2023-05-07T00:47:50;101851.81;;;8.02;100.00
57668;BME280;43499;52.366;12.912;2023-05-07T00:48:52;101856.31;;;8.03;100.00
57668;BME280;43499;52.366;12.912;2023-05-07T00:49:54;101863.16;;;8.10;100.00
57668;BME280;43499;52.366;12.912;2023-05-07T00:50:56;101869.13;;;8.09;100.00
57668;BME280;43499;52.366;12.912;2023-05-07T00:51:57;101878.84;;;8.10;100.00
57668;BME280;43499;52.366;12.912;2023-05-07T00:52:58;101869.41;;;8.03;100.00
57668;BME280;43499;52.366;12.912;2023-05-07T00:54:02;101874.38;;;8.09;100.00
57668;BME280;43499;52.366;12.912;2023-05-07T00:55:05;101871.94;;;8.11;100.00
57668;BME280;43499;52.366;12.912;2023-05-07T00:56:07;101867.97;;;8.14;100.00
57668;BME280;43499;52.366;12.912;2023-05-07T00:57:11;101869.97;;;8.17;100.00
57668;BME280;43499;52.366;12.912;2023-05-07T00:58:12;101869.63;;;8.14;100.00
57668;BME280;43499;52.366;12.912;2023-05-07T00:59:13;101872.50;;;8.08;100.00
57668;BME280;43499;52.366;12.912;2023-05-07T01:00:14;101871.34;;;8.13;100.00
57668;BME280;43499;52.366;12.912;2023-05-07T01:01:15;101871.34;;;8.13;100.00
57668;BME280;43499;52.366;12.912;2023-05-07T01:02:17;101858.31;;;8.06;100.00
57668;BME280;43499;52.366;12.912;2023-05-07T01:03:18;101865.75;;;8.10;100.00
57668;BME280;43499;52.366;12.912;2023-05-07T01:04:19;101872.69;;;8.10;100.00
57668;BME280;43499;52.366;12.912;2023-05-07T01:05:22;101880.56;;;8.10;100.00
57668;BME280;43499;52.366;12.912;2023-05-07T01:06:25;101859.38;;;7.99;100.00
57668;BME280;43499;52.366;12.912;2023-05-07T01:07:29;101881.31;;;8.09;100.00
57668;BME280;43499;52.366;12.912;2023-05-07T01:08:31;101871.59;;;8.08;100.00
57668;BME280;43499;52.366;12.912;2023-05-07T01:09:33;101879.63;;;8.09;100.00
57668;BME280;43499;52.366;12.912;2023-05-07T01:10:36;101852.44;;;8.00;100.00
57668;BME280;43499;52.366;12.912;2023-05-07T01:11:37;101873.47;;;8.09;100.00
57668;BME280;43499;52.366;12.912;2023-05-07T01:12:39;101873.28;;;8.07;100.00
57668;BME280;43499;52.366;12.912;2023-05-07T01:13:41;101864.34;;;8.05;100.00
57668;BME280;43499;52.366;12.912;2023-05-07T01:14:42;101868.13;;;8.00;100.00
57668;BME280;43499;52.366;12.912;2023-05-07T01:15:43;101874.72;;;8.12;100.00
57668;BME280;43499;52.366;12.912;2023-05-07T01:16:44;101867.47;;;8.10;100.00
57668;BME280;43499;52.366;12.912;2023-05-07T01:17:46;101850.72;;;8.00;100.00
57668;BME280;43499;52.366;12.912;2023-05-07T01:18:53;101864.66;;;8.08;100.00
57668;BME280;43499;52.366;12.912;2023-05-07T01:19:54;101867.47;;;8.10;100.00
57668;BME280;43499;52.366;12.912;2023-05-07T01:20:58;101863.00;;;8.09;100.00
57668;BME280;43499;52.366;12.912;2023-05-07T01:22:03;101858.16;;;8.05;100.00
57668;BME280;43499;52.366;12.912;2023-05-07T01:23:06;101863.91;;;8.09;100.00
57668;BME280;43499;52.366;12.912;2023-05-07T01:24:07;101864.09;;;8.11;100.00
57668;BME280;43499;52.366;12.912;2023-05-07T01:25:08;101856.03;;;8.09;100.00
57668;BME280;43499;52.366;12.912;2023-05-07T01:26:12;101856.03;;;8.09;100.00
57668;BME280;43499;52.366;12.912;2023-05-07T01:27:13;101849.06;;;8.01;100.00
57668;BME280;43499;52.366;12.912;2023-05-07T01:28:14;101846.78;;;8.04;100.00
57668;BME280;43499;52.366;12.912;2023-05-07T01:29:17;101858.06;;;8.12;100.00
57668;BME280;43499;52.366;12.912;2023-05-07T01:30:20;101843.06;;;8.02;100.00
57668;BME280;43499;52.366;12.912;2023-05-07T01:31:23;101856.22;;;8.11;100.00
57668;BME280;43499;52.366;12.912;2023-05-07T01:32:48;101850.81;;;8.09;100.00
57668;BME280;43499;52.366;12.912;2023-05-07T01:33:51;101852.31;;;8.07;100.00
57668;BME280;43499;52.366;12.912;2023-05-07T01:34:53;101838.72;;;8.02;100.00
57668;BME280;43499;52.366;12.912;2023-05-07T01:35:55;101843.06;;;8.02;100.00
57668;BME280;43499;52.366;12.912;2023-05-07T01:36:59;101855.53;;;8.05;100.00
57668;BME280;43499;52.366;12.912;2023-05-07T01:38:00;101839.75;;;7.96;100.00
57668;BME280;43499;52.366;12.912;2023-05-07T01:39:01;101851.41;;;8.07;100.00
57668;BME280;43499;52.366;12.912;2023-05-07T01:40:03;101846.31;;;8.08;100.00
57668;BME280;43499;52.366;12.912;2023-05-07T01:41:06;101847.09;;;8.07;100.00
57668;BME280;43499;52.366;12.912;2023-05-07T01:42:08;101845.69;;;8.02;100.00
57668;BME280;43499;52.366;12.912;2023-05-07T01:43:09;101848.94;;;8.08;100.00
57668;BME280;43499;52.366;12.912;2023-05-07T01:44:13;101855.13;;;8.09;100.00
57668;BME280;43499;52.366;12.912;2023-05-07T01:45:14;101855.88;;;8.08;100.00
57668;BME280;43499;52.366;12.912;2023-05-07T01:46:16;101860.38;;;8.09;100.00
57668;BME280;43499;52.366;12.912;2023-05-07T01:47:18;101851.56;;;8.08;100.00
57668;BME280;43499;52.366;12.912;2023-05-07T01:48:20;101860.53;;;8.10;100.00
57668;BME280;43499;52.366;12.912;2023-05-07T01:49:21;101847.78;;;7.97;100.00
57668;BME280;43499;52.366;12.912;2023-05-07T01:50:25;101856.75;;;7.99;100.00
57668;BME280;43499;52.366;12.912;2023-05-07T01:51:26;101861.38;;;8.02;100.00
57668;BME280;43499;52.366;12.912;2023-05-07T01:52:28;101859.13;;;8.05;100.00
57668;BME280;43499;52.366;12.912;2023-05-07T01:53:35;101860.19;;;8.07;100.00
57668;BME280;43499;52.366;12.912;2023-05-07T01:54:36;101863.25;;;8.03;100.00
57668;BME280;43499;52.366;12.912;2023-05-07T01:55:38;101864.84;;;8.10;100.00
57668;BME280;43499;52.366;12.912;2023-05-07T01:56:39;101862.66;;;8.06;100.00
57668;BME280;43499;52.366;12.912;2023-05-07T01:57:40;101860.78;;;8.05;100.00
57668;BME280;43499;52.366;12.912;2023-05-07T01:58:41;101876.09;;;8.09;100.00
57668;BME280;43499;52.366;12.912;2023-05-07T01:59:42;101879.25;;;8.06;100.00
57668;BME280;43499;52.366;12.912;2023-05-07T02:00:44;101866.78;;;8.03;100.00
57668;BME280;43499;52.366;12.912;2023-05-07T02:01:45;101857.06;;;8.02;100.00
57668;BME280;43499;52.366;12.912;2023-05-07T02:02:46;101874.72;;;8.12;100.00
57668;BME280;43499;52.366;12.912;2023-05-07T02:04:05;101878.25;;;8.13;100.00
57668;BME280;43499;52.366;12.912;2023-05-07T02:05:06;101863.25;;;8.03;100.00
57668;BME280;43499;52.366;12.912;2023-05-07T02:06:07;101841.28;;;7.94;100.00
57668;BME280;43499;52.366;12.912;2023-05-07T02:07:11;101873.72;;;8.03;100.00
57668;BME280;43499;52.366;12.912;2023-05-07T02:08:13;101874.81;;;8.05;100.00
57668;BME280;43499;52.366;12.912;2023-05-07T02:09:14;101877.59;;;8.07;100.00
57668;BME280;43499;52.366;12.912;2023-05-07T02:10:17;101869.06;;;8.00;100.00
57668;BME280;43499;52.366;12.912;2023-05-07T02:11:18;101883.44;;;8.04;100.00
57668;BME280;43499;52.366;12.912;2023-05-07T02:12:19;101876.34;;;8.03;100.00
57668;BME280;43499;52.366;12.912;2023-05-07T02:13:20;101858.41;;;7.99;100.00
57668;BME280;43499;52.366;12.912;2023-05-07T02:14:22;101872.09;;;8.12;100.00
57668;BME280;43499;52.366;12.912;2023-05-07T02:15:23;101866.72;;;8.11;100.00
57668;BME280;43499;52.366;12.912;2023-05-07T02:16:26;101873.34;;;8.16;100.00
57668;BME280;43499;52.366;12.912;2023-05-07T02:17:28;101871.00;;;8.10;100.00
57668;BME280;43499;52.366;12.912;2023-05-07T02:18:32;101879.97;;;8.12;100.00
57668;BME280;43499;52.366;12.912;2023-05-07T02:19:33;101876.66;;;8.06;100.00
57668;BME280;43499;52.366;12.912;2023-05-07T02:20:34;101851.31;;;7.98;100.00
57668;BME280;43499;52.366;12.912;2023-05-07T02:21:35;101878.84;;;8.10;100.00
57668;BME280;43499;52.366;12.912;2023-05-07T02:22:36;101867.28;;;8.08;100.00
57668;BME280;43499;52.366;12.912;2023-05-07T02:23:37;101883.34;;;8.11;100.00
57668;BME280;43499;52.366;12.912;2023-05-07T02:24:39;101873.78;;;8.12;100.00
57668;BME280;43499;52.366;12.912;2023-05-07T02:25:40;101865.25;;;8.06;100.00
57668;BME280;43499;52.366;12.912;2023-05-07T02:26:41;101868.38;;;8.10;100.00
57668;BME280;43499;52.366;12.912;2023-05-07T02:27:42;101872.84;;;8.11;100.00
57668;BME280;43499;52.366;12.912;2023-05-07T02:28:44;101875.31;;;8.10;100.00
57668;BME280;43499;52.366;12.912;2023-05-07T02:29:45;101866.28;;;7.99;100.00
57668;BME280;43499;52.366;12.912;2023-05-07T02:30:46;101878.97;;;8.03;100.00
57668;BME280;43499;52.366;12.912;2023-05-07T02:31:47;101881.56;;;8.03;100.00
57668;BME280;43499;52.366;12.912;2023-05-07T02:32:53;101869.25;;;8.02;100.00
57668;BME280;43499;52.366;12.912;2023-05-07T02:33:54;101876.66;;;8.06;100.00
57668;BME280;43499;52.366;12.912;2023-05-07T02:34:55;101886.72;;;8.10;100.00
57668;BME280;43499;52.366;12.912;2023-05-07T02:35:56;101897.03;;;8.09;100.00
57668;BME280;43499;52.366;12.912;2023-05-07T02:36:57;101888.56;;;8.11;100.00
57668;BME280;43499;52.366;12.912;2023-05-07T02:38:00;101890.44;;;8.12;100.00
57668;BME280;43499;52.366;12.912;2023-05-07T02:39:02;101877.00;;;8.09;100.00
57668;BME280;43499;52.366;12.912;2023-05-07T02:40:03;101882.50;;;8.03;100.00
57668;BME280;43499;52.366;12.912;2023-05-07T02:41:05;101883.19;;;8.10;100.00
57668;BME280;43499;52.366;12.912;2023-05-07T02:42:06;101870.00;;;8.01;100.00
57668;BME280;43499;52.366;12.912;2023-05-07T02:43:08;101877.44;;;8.05;100.00
57668;BME280;43499;52.366;12.912;2023-05-07T02:44:09;101872.19;;;8.05;100.00
57668;BME280;43499;52.366;12.912;2023-05-07T02:45:11;101885.59;;;8.08;100.00
57668;BME280;43499;52.366;12.912;2023-05-07T02:46:13;101883.00;;;8.08;100.00
57668;BME280;43499;52.366;12.912;2023-05-07T02:47:18;101879.13;;;8.05;100.00
57668;BME280;43499;52.366;12.912;2023-05-07T02:48:20;101891.78;;;8.09;100.00
57668;BME280;43499;52.366;12.912;2023-05-07T02:49:21;101877.44;;;8.05;100.00
57668;BME280;43499;52.366;12.912;2023-05-07T02:50:22;101888.06;;;8.07;100.00
57668;BME280;43499;52.366;12.912;2023-05-07T02:51:23;101881.31;;;8.09;100.00
57668;BME280;43499;52.366;12.912;2023-05-07T02:52:25;101889.47;;;8.12;100.00
57668;BME280;43499;52.366;12.912;2023-05-07T02:53:26;101887.81;;;8.12;100.00
57668;BME280;43499;52.366;12.912;2023-05-07T02:54:27;101886.97;;;8.05;100.00
57668;BME280;43499;52.366;12.912;2023-05-07T02:55:28;101888.06;;;8.07;100.00
57668;BME280;43499;52.366;12.912;2023-05-07T02:56:30;101875.59;;;8.04;100.00
57668;BME280;43499;52.366;12.912;2023-05-07T02:57:31;101887.66;;;8.11;100.00
57668;BME280;43499;52.366;12.912;2023-05-07T02:58:32;101885.34;;;8.14;100.00
57668;BME280;43499;52.366;12.912;2023-05-07T02:59:34;101874.97;;;8.07;100.00
57668;BME280;43499;52.366;12.912;2023-05-07T03:00:36;101892.44;;;8.15;100.00
57668;BME280;43499;52.366;12.912;2023-05-07T03:01:46;101884.44;;;8.13;100.00
57668;BME280;43499;52.366;12.912;2023-05-07T03:02:48;101890.03;;;8.16;100.00
57668;BME280;43499;52.366;12.912;2023-05-07T03:03:49;101895.25;;;8.16;100.00
57668;BME280;43499;52.366;12.912;2023-05-07T03:04:50;101885.94;;;8.11;100.00
57668;BME280;43499;52.366;12.912;2023-05-07T03:05:51;101888.31;;;8.17;100.00
57668;BME280;43499;52.366;12.912;2023-05-07T03:06:52;101897.28;;;8.19;100.00
57668;BME280;43499;52.366;12.912;2023-05-07T03:07:53;101893.56;;;8.17;100.00
57668;BME280;43499;52.366;12.912;2023-05-07T03:08:54;101895.81;;;8.14;100.00
57668;BME280;43499;52.366;12.912;2023-05-07T03:09:55;101892.28;;;8.13;100.00
57668;BME280;43499;52.366;12.912;2023-05-07T03:10:56;101881.13;;;8.07;100.00
57668;BME280;43499;52.366;12.912;2023-05-07T03:11:57;101874.63;;;8.03;100.00
57668;BME280;43499;52.366;12.912;2023-05-07T03:12:59;101884.84;;;8.09;100.00
57668;BME280;43499;52.366;12.912;2023-05-07T03:14:00;101883.00;;;8.08;100.00
57668;BME280;43499;52.366;12.912;2023-05-07T03:15:01;101899.81;;;8.10;100.00
57668;BME280;43499;52.366;12.912;2023-05-07T03:16:02;101898.13;;;8.11;100.00
57668;BME280;43499;52.366;12.912;2023-05-07T03:17:03;101901.06;;;8.14;100.00
57668;BME280;43499;52.366;12.912;2023-05-07T03:18:05;101900.16;;;8.13;100.00
57668;BME280;43499;52.366;12.912;2023-05-07T03:19:06;101897.03;;;8.09;100.00
57668;BME280;43499;52.366;12.912;2023-05-07T03:20:07;101898.13;;;8.11;100.00
57668;BME280;43499;52.366;12.912;2023-05-07T03:21:10;101888.97;;;8.07;100.00
57668;BME280;43499;52.366;12.912;2023-05-07T03:22:11;101884.50;;;8.06;100.00
57668;BME280;43499;52.366;12.912;2023-05-07T03:23:12;101892.56;;;8.08;100.00
57668;BME280;43499;52.366;12.912;2023-05-07T03:24:13;101883.59;;;8.06;100.00
57668;BME280;43499;52.366;12.912;2023-05-07T03:25:14;101898.69;;;8.08;100.00
57668;BME280;43499;52.366;12.912;2023-05-07T03:26:15;101903.19;;;8.09;100.00
57668;BME280;43499;52.366;12.912;2023-05-07T03:27:17;101893.91;;;8.04;100.00
57668;BME280;43499;52.366;12.912;2023-05-07T03:28:19;101894.41;;;8.09;100.00
57668;BME280;43499;52.366;12.912;2023-05-07T03:29:26;101887.56;;;8.02;100.00
57668;BME280;43499;52.366;12.912;2023-05-07T03:30:27;101896.69;;;8.06;100.00
57668;BME280;43499;52.366;12.912;2023-05-07T03:31:28;101899.03;;;8.11;100.00
57668;BME280;43499;52.366;12.912;2023-05-07T03:32:29;101889.44;;;8.03;100.00
57668;BME280;43499;52.366;12.912;2023-05-07T03:33:33;101909.38;;;8.10;100.00
57668;BME280;43499;52.366;12.912;2023-05-07T03:34:34;101900.91;;;8.12;100.00
57668;BME280;43499;52.366;12.912;2023-05-07T03:35:35;101907.50;;;8.09;99.57
57668;BME280;43499;52.366;12.912;2023-05-07T03:36:36;101905.66;;;8.08;100.00
57668;BME280;43499;52.366;12.912;2023-05-07T03:37:40;101913.06;;;8.12;100.00
57668;BME280;43499;52.366;12.912;2023-05-07T03:38:42;101881.06;;;7.98;99.77
57668;BME280;43499;52.366;12.912;2023-05-07T03:39:43;101903.03;;;8.08;99.50
57668;BME280;43499;52.366;12.912;2023-05-07T03:40:45;101910.13;;;8.09;99.65
57668;BME280;43499;52.366;12.912;2023-05-07T03:41:46;101911.78;;;8.08;99.19
57668;BME280;43499;52.366;12.912;2023-05-07T03:42:47;101917.97;;;8.09;98.69
57668;BME280;43499;52.366;12.912;2023-05-07T03:43:49;101909.63;;;8.04;98.31
57668;BME280;43499;52.366;12.912;2023-05-07T03:44:50;101905.44;;;8.06;98.92
57668;BME280;43499;52.366;12.912;2023-05-07T03:45:51;101913.84;;;8.11;99.16
57668;BME280;43499;52.366;12.912;2023-05-07T03:46:59;101920.91;;;8.12;98.47
57668;BME280;43499;52.366;12.912;2023-05-07T03:48:00;101918.13;;;8.10;97.65
57668;BME280;43499;52.366;12.912;2023-05-07T03:49:02;101919.66;;;8.08;97.63
57668;BME280;43499;52.366;12.912;2023-05-07T03:50:04;101916.63;;;8.12;97.99
57668;BME280;43499;52.366;12.912;2023-05-07T03:51:05;101913.25;;;8.13;99.40
57668;BME280;43499;52.366;12.912;2023-05-07T03:52:08;101913.06;;;8.12;99.45
57668;BME280;43499;52.366;12.912;2023-05-07T03:53:09;101919.84;;;8.10;98.61
57668;BME280;43499;52.366;12.912;2023-05-07T03:54:13;101905.44;;;8.06;98.76
57668;BME280;43499;52.366;12.912;2023-05-07T03:55:18;101907.31;;;8.07;97.51
57668;BME280;43499;52.366;12.912;2023-05-07T03:56:25;101891.19;;;7.95;97.85
57668;BME280;43499;52.366;12.912;2023-05-07T03:57:29;101907.56;;;8.01;97.96
57668;BME280;43499;52.366;12.912;2023-05-07T03:58:30;101912.03;;;8.02;98.07
57668;BME280;43499;52.366;12.912;2023-05-07T03:59:34;101917.03;;;8.08;97.80
57668;BME280;43499;52.366;12.912;2023-05-07T04:00:35;101926.00;;;8.10;98.12
57668;BME280;43499;52.366;12.912;2023-05-07T04:01:44;101913.91;;;8.03;98.01
57668;BME280;43499;52.366;12.912;2023-05-07T04:02:50;101914.84;;;8.04;98.10
57668;BME280;43499;52.366;12.912;2023-05-07T04:03:57;101922.38;;;8.01;97.78
57668;BME280;43499;52.366;12.912;2023-05-07T04:04:59;101886.97;;;7.88;97.71
57668;BME280;43499;52.366;12.912;2023-05-07T04:06:01;101930.06;;;7.99;97.71
57668;BME280;43499;52.366;12.912;2023-05-07T04:07:02;101926.16;;;7.96;97.14
57668;BME280;43499;52.366;12.912;2023-05-07T04:08:05;101922.78;;;7.97;97.58
57668;BME280;43499;52.366;12.912;2023-05-07T04:09:12;101915.50;;;7.94;97.92
57668;BME280;43499;52.366;12.912;2023-05-07T04:10:13;101914.81;;;7.88;97.89
57668;BME280;43499;52.366;12.912;2023-05-07T04:11:17;101925.75;;;8.00;98.74
57668;BME280;43499;52.366;12.912;2023-05-07T04:12:18;101921.25;;;7.99;98.88
57668;BME280;43499;52.366;12.912;2023-05-07T04:13:20;101907.31;;;7.91;98.70
57668;BME280;43499;52.366;12.912;2023-05-07T04:14:21;101934.84;;;8.03;99.29
57668;BME280;43499;52.366;12.912;2023-05-07T04:15:22;101927.75;;;8.02;99.15
57668;BME280;43499;52.366;12.912;2023-05-07T04:16:23;101934.69;;;8.02;99.08
57668;BME280;43499;52.366;12.912;2023-05-07T04:17:24;101932.50;;;7.98;98.33
57668;BME280;43499;52.366;12.912;2023-05-07T04:18:25;101939.94;;;8.02;98.59
57668;BME280;43499;52.366;12.912;2023-05-07T04:19:26;101927.09;;;7.96;98.88
57668;BME280;43499;52.366;12.912;2023-05-07T04:20:28;101943.06;;;8.07;99.68
57668;BME280;43499;52.366;12.912;2023-05-07T04:21:36;101939.00;;;8.01;100.00
57668;BME280;43499;52.366;12.912;2023-05-07T04:22:37;101943.97;;;8.07;100.00
57668;BME280;43499;52.366;12.912;2023-05-07T04:23:38;101956.31;;;8.08;100.00
57668;BME280;43499;52.366;12.912;2023-05-07T04:24:44;101938.84;;;8.00;99.36
57668;BME280;43499;52.366;12.912;2023-05-07T04:25:47;101928.44;;;7.93;97.79
57668;BME280;43499;52.366;12.912;2023-05-07T04:26:56;101953.38;;;8.05;97.96
57668;BME280;43499;52.366;12.912;2023-05-07T04:27:59;101963.50;;;8.02;98.45
57668;BME280;43499;52.366;12.912;2023-05-07T04:29:01;101951.16;;;8.01;97.98
57668;BME280;43499;52.366;12.912;2023-05-07T04:30:07;101941.84;;;7.96;97.96
57668;BME280;43499;52.366;12.912;2023-05-07T04:31:12;101943.81;;;8.06;98.32
57668;BME280;43499;52.366;12.912;2023-05-07T04:32:14;101939.75;;;8.00;99.33
57668;BME280;43499;52.366;12.912;2023-05-07T04:33:15;101944.56;;;8.05;99.39
57668;BME280;43499;52.366;12.912;2023-05-07T04:34:21;101953.13;;;8.11;99.41
57668;BME280;43499;52.366;12.912;2023-05-07T04:35:22;101947.34;;;8.06;98.14
57668;BME280;43499;52.366;12.912;2023-05-07T04:36:23;101942.22;;;7.99;98.46
57668;BME280;43499;52.366;12.912;2023-05-07T04:37:33;101957.81;;;8.06;98.83
57668;BME280;43499;52.366;12.912;2023-05-07T04:38:35;101963.06;;;8.06;98.83
57668;BME280;43499;52.366;12.912;2023-05-07T04:39:38;101949.72;;;7.96;98.39
57668;BME280;43499;52.366;12.912;2023-05-07T04:40:39;101954.94;;;7.96;98.40
57668;BME280;43499;52.366;12.912;2023-05-07T04:41:41;101958.66;;;7.98;98.05
57668;BME280;43499;52.366;12.912;2023-05-07T04:42:43;101964.84;;;7.98;98.26
57668;BME280;43499;52.366;12.912;2023-05-07T04:43:44;101961.28;;;7.98;98.55
57668;BME280;43499;52.366;12.912;2023-05-07T04:44:52;101963.50;;;8.02;98.14
57668;BME280;43499;52.366;12.912;2023-05-07T04:45:53;101945.16;;;8.02;98.33
57668;BME280;43499;52.366;12.912;2023-05-07T04:46:57;101958.94;;;8.08;98.97
57668;BME280;43499;52.366;12.912;2023-05-07T04:47:59;101972.03;;;8.08;98.55
57668;BME280;43499;52.366;12.912;2023-05-07T04:49:00;101944.72;;;7.90;97.85
57668;BME280;43499;52.366;12.912;2023-05-07T04:50:01;101967.53;;;8.07;98.85
57668;BME280;43499;52.366;12.912;2023-05-07T04:51:02;101972.03;;;8.08;99.01
57668;BME280;43499;52.366;12.912;2023-05-07T04:52:03;101964.38;;;8.10;99.67
57668;BME280;43499;52.366;12.912;2023-05-07T04:53:04;101961.75;;;8.10;98.81
57668;BME280;43499;52.366;12.912;2023-05-07T04:54:06;101969.25;;;8.07;98.01
57668;BME280;43499;52.366;12.912;2023-05-07T04:55:07;101982.09;;;8.12;98.30
57668;BME280;43499;52.366;12.912;2023-05-07T04:56:12;101965.53;;;8.05;98.32
57668;BME280;43499;52.366;12.912;2023-05-07T04:57:16;101965.16;;;8.01;98.49
57668;BME280;43499;52.366;12.912;2023-05-07T04:58:18;101958.50;;;7.96;99.34
57668;BME280;43499;52.366;12.912;2023-05-07T04:59:21;101967.53;;;8.07;98.69
57668;BME280;43499;52.366;12.912;2023-05-07T05:00:24;101962.31;;;8.07;98.66
57668;BME280;43499;52.366;12.912;2023-05-07T05:01:27;101964.53;;;8.11;98.63
57668;BME280;43499;52.366;12.912;2023-05-07T05:02:28;101963.75;;;8.12;97.97
57668;BME280;43499;52.366;12.912;2023-05-07T05:03:29;101957.41;;;8.10;97.87
57668;BME280;43499;52.366;12.912;2023-05-07T05:04:31;101966.47;;;8.05;98.27
57668;BME280;43499;52.366;12.912;2023-05-07T05:05:32;101965.13;;;8.09;98.06
57668;BME280;43499;52.366;12.912;2023-05-07T05:06:34;101970.59;;;8.03;97.52
57668;BME280;43499;52.366;12.912;2023-05-07T05:07:37;101948.78;;;7.95;97.54
57668;BME280;43499;52.366;12.912;2023-05-07T05:08:39;101963.66;;;8.03;97.91
57668;BME280;43499;52.366;12.912;2023-05-07T05:09:40;101962.56;;;8.01;97.66
57668;BME280;43499;52.366;12.912;2023-05-07T05:10:42;101968.66;;;8.09;97.59
57668;BME280;43499;52.366;12.912;2023-05-07T05:11:44;101950.47;;;7.95;97.17
57668;BME280;43499;52.366;12.912;2023-05-07T05:12:45;101970.16;;;8.07;97.48
57668;BME280;43499;52.366;12.912;2023-05-07T05:13:46;101982.50;;;8.08;97.60
57668;BME280;43499;52.366;12.912;2023-05-07T05:14:52;101985.72;;;8.06;97.59
57668;BME280;43499;52.366;12.912;2023-05-07T05:15:53;101981.59;;;8.08;98.73
57668;BME280;43499;52.366;12.912;2023-05-07T05:16:55;101960.94;;;7.95;97.93
57668;BME280;43499;52.366;12.912;2023-05-07T05:17:56;101986.63;;;8.06;98.37
57668;BME280;43499;52.366;12.912;2023-05-07T05:18:57;101974.88;;;8.02;98.79
57668;BME280;43499;52.366;12.912;2023-05-07T05:19:58;101977.69;;;8.04;99.99
57668;BME280;43499;52.366;12.912;2023-05-07T05:20:59;101952.31;;;7.96;99.07
57668;BME280;43499;52.366;12.912;2023-05-07T05:22:01;101975.75;;;8.10;99.36